createdAt,value
2022-09-12T00:01:21.459Z,99515.50
2022-09-12T00:03:48.170Z,99514.94
2022-09-12T00:06:22.613Z,99510.56
2022-09-12T00:08:50.307Z,99511.84
2022-09-12T00:11:16.882Z,99521.75
2022-09-12T00:13:44.052Z,99513.81
2022-09-12T00:16:22.605Z,99509.31
2022-09-12T00:18:49.308Z,99513.25
2022-09-12T00:21:18.102Z,99515.94
2022-09-12T00:23:45.394Z,99507.06
2022-09-12T00:26:12.824Z,99506.22
2022-09-12T00:28:40.322Z,99508.91
2022-09-12T00:31:20.284Z,99503.38
2022-09-12T00:33:46.995Z,99505.34
2022-09-12T00:36:20.137Z,99499.41
2022-09-12T00:38:47.817Z,99502.69
2022-09-12T00:41:27.382Z,99490.53
2022-09-12T00:43:59.802Z,99491.53
2022-09-12T00:46:44.045Z,99482.06
2022-09-12T00:49:28.210Z,99483.63
2022-09-12T00:52:10.139Z,99479.50
2022-09-12T00:55:05.635Z,99483.28
2022-09-12T00:57:38.112Z,99475.50
2022-09-12T01:00:15.607Z,99476.25
2022-09-12T01:02:45.247Z,99480.06
2022-09-12T01:05:13.514Z,99481.06
2022-09-12T01:07:41.510Z,99481.91
2022-09-12T01:10:09.745Z,99479.50
2022-09-12T01:12:40.802Z,99475.41
2022-09-12T01:15:08.027Z,99477.38
2022-09-12T01:17:58.824Z,99482.19
2022-09-12T01:20:43.628Z,99480.78
2022-09-12T01:23:39.387Z,99477.50
2022-09-12T01:26:38.939Z,99481.34
2022-09-12T01:29:15.109Z,99476.53
2022-09-12T01:31:54.188Z,99479.91
2022-09-12T01:34:53.130Z,99465.50
2022-09-12T01:37:25.591Z,99484.31
2022-09-12T01:40:21.619Z,99481.28
2022-09-12T01:43:03.412Z,99480.59
2022-09-12T01:45:46.234Z,99478.63
2022-09-12T01:48:36.996Z,99482.31
2022-09-12T01:51:13.264Z,99478.19
2022-09-12T01:53:44.789Z,99475.28
2022-09-12T01:56:22.382Z,99476.81
2022-09-12T01:59:02.394Z,99470.03
2022-09-12T02:01:33.742Z,99472.31
2022-09-12T02:04:18.235Z,99461.31
2022-09-12T02:06:56.411Z,99468.50
2022-09-12T02:09:29.320Z,99464.13
2022-09-12T02:12:01.416Z,99460.03
2022-09-12T02:14:53.590Z,99462.00
2022-09-12T02:17:23.218Z,99458.22
2022-09-12T02:19:54.894Z,99460.91
2022-09-12T02:22:24.324Z,99459.38
2022-09-12T02:24:54.538Z,99460.34
2022-09-12T02:27:46.774Z,99462.47
2022-09-12T02:30:17.552Z,99460.19
2022-09-12T02:33:14.571Z,99464.72
2022-09-12T02:35:53.113Z,99457.66
2022-09-12T02:38:30.014Z,99458.06
2022-09-12T02:40:57.058Z,99458.38
2022-09-12T02:43:23.709Z,99458.38
2022-09-12T02:45:50.339Z,99455.13
2022-09-12T02:48:24.490Z,99451.44
2022-09-12T02:50:51.376Z,99458.53
2022-09-12T02:53:18.404Z,99446.81
2022-09-12T02:55:45.120Z,99445.94
2022-09-12T02:58:19.073Z,99441.28
2022-09-12T03:01:08.372Z,99448.47
2022-09-12T03:03:43.456Z,99440.72
2022-09-12T03:06:18.602Z,99434.50
2022-09-12T03:09:01.326Z,99435.75
2022-09-12T03:11:49.484Z,99443.81
2022-09-12T03:14:31.985Z,99439.03
2022-09-12T03:17:18.314Z,99437.91
2022-09-12T03:20:09.355Z,99441.56
2022-09-12T03:22:46.200Z,99439.72
2022-09-12T03:25:17.202Z,99438.63
2022-09-12T03:27:54.182Z,99437.59
2022-09-12T03:30:20.732Z,99444.81
2022-09-12T03:32:50.580Z,99441.03
2022-09-12T03:35:23.013Z,99444.13
2022-09-12T03:37:51.511Z,99443.41
2022-09-12T03:40:18.065Z,99443.28
2022-09-12T03:42:44.670Z,99446.94
2022-09-12T03:45:11.657Z,99443.41
2022-09-12T03:47:38.370Z,99446.94
2022-09-12T03:50:06.433Z,99443.69
2022-09-12T03:52:33.359Z,99444.81
2022-09-12T03:54:59.805Z,99443.84
2022-09-12T03:57:26.400Z,99449.22
2022-09-12T03:59:52.766Z,99446.25
2022-09-12T04:02:19.480Z,99436.63
2022-09-12T04:04:48.142Z,99444.38
2022-09-12T04:07:16.696Z,99438.59
2022-09-12T04:09:43.150Z,99444.69
2022-09-12T04:12:09.615Z,99441.00
2022-09-12T04:14:38.471Z,99441.16
2022-09-12T04:17:05.063Z,99434.09
2022-09-12T04:19:31.517Z,99431.13
2022-09-12T04:21:58.264Z,99435.63
2022-09-12T04:24:24.647Z,99427.44
2022-09-12T04:26:51.197Z,99429.03
2022-09-12T04:29:17.601Z,99427.16
2022-09-12T04:31:44.411Z,99430.00
2022-09-12T04:34:10.898Z,99434.25
2022-09-12T04:36:37.461Z,99427.16
2022-09-12T04:39:05.438Z,99429.00
2022-09-12T04:41:35.248Z,99431.38
2022-09-12T04:44:10.141Z,99433.09
2022-09-12T04:46:40.171Z,99431.38
2022-09-12T04:49:06.696Z,99421.19
2022-09-12T04:51:35.889Z,99422.19
2022-09-12T04:54:08.171Z,99424.03
2022-09-12T04:56:38.620Z,99415.13
2022-09-12T04:59:05.312Z,99419.66
2022-09-12T05:01:31.734Z,99422.63
2022-09-12T05:03:59.789Z,99420.91
2022-09-12T05:06:29.938Z,99419.09
2022-09-12T05:08:58.489Z,99419.81
2022-09-12T05:11:59.754Z,99423.31
2022-09-12T05:14:17.537Z,99416.56
2022-09-12T05:16:48.559Z,99417.31
2022-09-12T05:19:15.801Z,99421.34
2022-09-12T05:21:42.272Z,99422.94
2022-09-12T05:24:11.315Z,99428.72
2022-09-12T05:26:38.040Z,99418.28
2022-09-12T05:29:06.055Z,99420.41
2022-09-12T05:31:32.656Z,99419.13
2022-09-12T05:33:59.155Z,99407.13
2022-09-12T05:36:29.116Z,99411.63
2022-09-12T05:38:56.320Z,99410.22
2022-09-12T05:41:25.484Z,99412.19
2022-09-12T05:43:56.470Z,99408.53
2022-09-12T05:46:26.896Z,99417.84
2022-09-12T05:48:56.325Z,99410.91
2022-09-12T05:51:28.492Z,99409.63
2022-09-12T05:53:59.907Z,99410.19
2022-09-12T05:56:28.925Z,99418.81
2022-09-12T05:58:56.462Z,99421.44
2022-09-12T06:01:23.295Z,99417.91
2022-09-12T06:03:52.410Z,99414.88
2022-09-12T06:06:21.525Z,99411.53
2022-09-12T06:08:50.394Z,99408.97
2022-09-12T06:11:28.714Z,99410.94
2022-09-12T06:13:58.958Z,99417.13
2022-09-12T06:16:27.963Z,99420.47
2022-09-12T06:18:57.043Z,99419.72
2022-09-12T06:21:26.422Z,99418.09
2022-09-12T06:23:55.903Z,99414.44
2022-09-12T06:26:25.460Z,99410.25
2022-09-12T06:28:53.932Z,99414.13
2022-09-12T06:31:26.086Z,99416.91
2022-09-12T06:33:54.251Z,99428.63
2022-09-12T06:36:26.373Z,99429.47
2022-09-12T06:39:14.178Z,99419.41
2022-09-12T06:41:43.939Z,99413.63
2022-09-12T06:44:14.880Z,99414.59
2022-09-12T06:46:42.045Z,99417.22
2022-09-12T06:49:08.586Z,99415.84
2022-09-12T06:51:36.246Z,99417.63
2022-09-12T06:54:03.734Z,99417.84
2022-09-12T06:56:30.268Z,99410.47
2022-09-12T06:58:58.208Z,99407.47
2022-09-12T07:01:27.930Z,99404.81
2022-09-12T07:04:03.081Z,99399.78
2022-09-12T07:06:34.849Z,99400.81
2022-09-12T07:09:04.581Z,99383.44
2022-09-12T07:11:36.533Z,99384.28
2022-09-12T07:14:04.747Z,99381.09
2022-09-12T07:16:32.173Z,99376.56
2022-09-12T07:19:00.918Z,99380.28
2022-09-12T07:21:28.793Z,99377.75
2022-09-12T07:23:57.695Z,99373.81
2022-09-12T07:26:26.834Z,99378.34
2022-09-12T07:29:03.725Z,99367.19
2022-09-12T07:31:39.830Z,99372.06
2022-09-12T07:34:06.770Z,99372.31
2022-09-12T07:36:33.808Z,99376.84
2022-09-12T07:39:00.545Z,99374.56
2022-09-12T07:41:29.405Z,99375.91
2022-09-12T07:43:58.184Z,99370.25
2022-09-12T07:46:25.789Z,99362.63
2022-09-12T07:48:54.029Z,99364.75
2022-09-12T07:51:21.672Z,99366.84
2022-09-12T07:53:49.121Z,99361.91
2022-09-12T07:56:16.394Z,99362.97
2022-09-12T07:58:43.933Z,99372.75
2022-09-12T08:01:23.208Z,99378.75
2022-09-12T08:03:53.553Z,99370.56
2022-09-12T08:06:24.066Z,99371.97
2022-09-12T08:08:51.156Z,99367.75
2022-09-12T08:11:20.195Z,99371.53
2022-09-12T08:13:51.689Z,99379.78
2022-09-12T08:16:22.438Z,99376.63
2022-09-12T08:18:49.471Z,99358.88
2022-09-12T08:21:24.650Z,99369.34
2022-09-12T08:23:58.966Z,99365.88
2022-09-12T08:26:25.735Z,99376.00
2022-09-12T08:28:53.167Z,99367.09
2022-09-12T08:31:21.748Z,99361.84
2022-09-12T08:33:48.433Z,99368.75
2022-09-12T08:36:17.366Z,99358.91
2022-09-12T08:38:46.534Z,99358.22
2022-09-12T08:41:19.245Z,99355.78
2022-09-12T08:44:04.549Z,99357.56
2022-09-12T08:46:53.861Z,99351.56
2022-09-12T08:49:31.002Z,99349.56
2022-09-12T08:52:00.993Z,99340.59
2022-09-12T08:54:30.244Z,99337.09
2022-09-12T08:57:02.730Z,99342.56
2022-09-12T08:59:42.297Z,99336.88
2022-09-12T09:02:21.703Z,99339.69
2022-09-12T09:05:12.262Z,99337.91
2022-09-12T09:08:08.735Z,99330.84
2022-09-12T09:11:10.600Z,99329.44
2022-09-12T09:14:20.851Z,99332.47
2022-09-12T09:16:53.573Z,99333.78
2022-09-12T09:19:32.461Z,99331.97
2022-09-12T09:22:13.256Z,99328.03
2022-09-12T09:24:53.150Z,99325.50
2022-09-12T09:27:39.921Z,99331.63
2022-09-12T09:30:19.200Z,99323.44
2022-09-12T09:32:55.693Z,99328.53
2022-09-12T09:35:26.812Z,99317.19
2022-09-12T09:38:03.443Z,99318.03
2022-09-12T09:40:41.186Z,99307.47
2022-09-12T09:43:13.520Z,99316.72
2022-09-12T09:45:44.500Z,99312.31
2022-09-12T09:48:23.421Z,99309.22
2022-09-12T09:50:50.698Z,99303.63
2022-09-12T09:53:44.716Z,99307.69
2022-09-12T09:56:33.008Z,99294.72
2022-09-12T09:59:29.978Z,99278.34
2022-09-12T10:02:14.762Z,99284.22
2022-09-12T10:04:53.173Z,99270.41
2022-09-12T10:07:21.790Z,99271.88
2022-09-12T10:10:24.511Z,99263.66
2022-09-12T10:12:52.005Z,99267.91
2022-09-12T10:15:27.543Z,99263.03
2022-09-12T10:17:57.039Z,99261.56
2022-09-12T10:20:44.541Z,99255.47
2022-09-12T10:23:37.198Z,99255.00
2022-09-12T10:26:09.149Z,99261.03
2022-09-12T10:28:40.379Z,99252.41
2022-09-12T10:31:09.834Z,99251.19
2022-09-12T10:33:47.623Z,99253.63
2022-09-12T10:36:15.535Z,99244.09
2022-09-12T10:38:50.996Z,99247.19
2022-09-12T10:41:18.634Z,99242.47
2022-09-12T10:43:45.787Z,99235.59
2022-09-12T10:46:15.705Z,99234.72
2022-09-12T10:48:49.938Z,99235.94
2022-09-12T10:51:25.425Z,99226.06
2022-09-12T10:53:54.633Z,99223.94
2022-09-12T10:56:24.201Z,99216.69
2022-09-12T10:58:59.040Z,99222.00
2022-09-12T11:01:31.402Z,99210.41
2022-09-12T11:04:32.064Z,99209.91
2022-09-12T11:07:22.925Z,99209.16
2022-09-12T11:09:52.877Z,99214.16
2022-09-12T11:12:38.698Z,99208.38
2022-09-12T11:15:19.990Z,99199.72
2022-09-12T11:18:10.016Z,99198.72
2022-09-12T11:20:59.035Z,99193.81
2022-09-12T11:24:02.248Z,99200.25
2022-09-12T11:26:31.578Z,99192.06
2022-09-12T11:29:16.468Z,99190.09
2022-09-12T11:31:53.851Z,99181.59
2022-09-12T11:34:53.849Z,99176.09
2022-09-12T11:37:57.988Z,99176.66
2022-09-12T11:40:42.828Z,99164.63
2022-09-12T11:43:28.022Z,99162.44
2022-09-12T11:45:57.063Z,99169.84
2022-09-12T11:48:37.792Z,99162.44
2022-09-12T11:51:07.969Z,99166.28
2022-09-12T11:53:40.789Z,99168.13
2022-09-12T11:56:16.937Z,99155.25
2022-09-12T11:58:51.590Z,99156.09
2022-09-12T12:01:25.032Z,99160.38
2022-09-12T12:03:53.522Z,99161.78
2022-09-12T12:06:33.747Z,99149.31
2022-09-12T12:09:00.269Z,99148.06
2022-09-12T12:11:41.886Z,99138.78
2022-09-12T12:14:22.556Z,99152.97
2022-09-12T12:16:50.221Z,99138.38
2022-09-12T12:19:16.563Z,99139.66
2022-09-12T12:21:50.088Z,99134.19
2022-09-12T12:24:20.693Z,99143.41
2022-09-12T12:26:53.138Z,99132.25
2022-09-12T12:29:19.459Z,99134.56
2022-09-12T12:32:04.108Z,99128.75
2022-09-12T12:34:38.181Z,99133.44
2022-09-12T12:37:19.917Z,99120.44
2022-09-12T12:39:53.766Z,99114.47
2022-09-12T12:42:32.741Z,99112.69
2022-09-12T12:45:00.101Z,99116.88
2022-09-12T12:47:28.397Z,99118.28
2022-09-12T12:50:26.441Z,99111.16
2022-09-12T12:53:03.145Z,99104.22
2022-09-12T12:55:35.661Z,99094.31
2022-09-12T12:58:03.964Z,99091.78
2022-09-12T13:00:32.439Z,99090.84
2022-09-12T13:03:19.215Z,99091.31
2022-09-12T13:05:59.518Z,99087.16
2022-09-12T13:08:34.550Z,99075.72
2022-09-12T13:11:15.924Z,99070.28
2022-09-12T13:14:03.149Z,99071.03
2022-09-12T13:16:38.040Z,99065.19
2022-09-12T13:19:18.381Z,99064.47
2022-09-12T13:22:01.044Z,99056.00
2022-09-12T13:24:28.199Z,99049.19
2022-09-12T13:26:57.582Z,99052.06
2022-09-12T13:29:26.691Z,99046.03
2022-09-12T13:32:03.098Z,99046.16
2022-09-12T13:34:33.832Z,99038.00
2022-09-12T13:37:12.222Z,99039.38
2022-09-12T13:39:38.766Z,99030.34
2022-09-12T13:42:20.256Z,99041.28
2022-09-12T13:44:50.976Z,99036.25
2022-09-12T13:47:27.282Z,99029.81
2022-09-12T13:49:54.864Z,99034.19
2022-09-12T13:52:25.486Z,99028.03
2022-09-12T13:54:55.269Z,99020.28
2022-09-12T13:57:41.088Z,99017.63
2022-09-12T14:00:19.347Z,99020.97
2022-09-12T14:02:48.009Z,99027.22
2022-09-12T14:05:22.162Z,99026.34
2022-09-12T14:07:53.236Z,99026.41
2022-09-12T14:10:31.032Z,99017.44
2022-09-12T14:13:02.903Z,99011.19
2022-09-12T14:15:32.485Z,99010.06
2022-09-12T14:18:01.942Z,99007.22
2022-09-12T14:20:33.464Z,99014.94
2022-09-12T14:23:28.036Z,99013.09
2022-09-12T14:25:56.346Z,99008.44
2022-09-12T14:28:23.957Z,99007.66
2022-09-12T14:31:03.076Z,99007.97
2022-09-12T14:33:33.771Z,99012.50
2022-09-12T14:36:06.179Z,99010.22
2022-09-12T14:38:55.349Z,99009.66
2022-09-12T14:41:25.966Z,99002.47
2022-09-12T14:44:01.601Z,99004.31
2022-09-12T14:46:33.859Z,98996.91
2022-09-12T14:49:09.021Z,98993.25
2022-09-12T14:51:38.358Z,98998.63
2022-09-12T14:54:05.061Z,98995.00
2022-09-12T14:56:44.488Z,98987.50
2022-09-12T14:59:34.145Z,98982.84
2022-09-12T15:02:22.405Z,98984.78
2022-09-12T15:05:14.323Z,98974.03
2022-09-12T15:07:43.913Z,98968.94
2022-09-12T15:10:37.597Z,98963.22
2022-09-12T15:13:14.146Z,98960.03
2022-09-12T15:15:42.914Z,98958.28
2022-09-12T15:18:09.939Z,98954.88
2022-09-12T15:20:38.969Z,98958.25
2022-09-12T15:23:10.833Z,98946.09
2022-09-12T15:25:37.248Z,98957.53
2022-09-12T15:28:15.242Z,98953.97
2022-09-12T15:30:41.602Z,98950.78
2022-09-12T15:33:09.360Z,98947.31
2022-09-12T15:35:35.741Z,98951.59
2022-09-12T15:38:02.289Z,98949.56
2022-09-12T15:40:28.664Z,98946.84
2022-09-12T15:42:55.178Z,98946.72
2022-09-12T15:45:25.926Z,98948.91
2022-09-12T15:47:52.442Z,98948.91
2022-09-12T15:50:19.096Z,98945.16
2022-09-12T15:52:45.571Z,98943.00
2022-09-12T15:55:17.715Z,98939.00
2022-09-12T15:57:44.416Z,98938.84
2022-09-12T16:00:11.924Z,98937.03
2022-09-12T16:02:38.518Z,98933.91
2022-09-12T16:05:06.056Z,98930.72
2022-09-12T16:07:32.592Z,98932.16
2022-09-12T16:09:59.038Z,98929.50
2022-09-12T16:12:25.436Z,98923.03
2022-09-12T16:14:51.966Z,98924.59
2022-09-12T16:17:18.316Z,98921.16
2022-09-12T16:19:44.891Z,98920.84
2022-09-12T16:22:11.337Z,98919.66
2022-09-12T16:24:39.292Z,98915.94
2022-09-12T16:27:06.187Z,98918.34
2022-09-12T16:29:32.698Z,98911.56
2022-09-12T16:31:59.165Z,98909.19
2022-09-12T16:34:25.734Z,98904.16
2022-09-12T16:36:52.775Z,98898.75
2022-09-12T16:39:19.292Z,98901.13
2022-09-12T16:41:45.899Z,98898.00
2022-09-12T16:44:12.397Z,98900.00
2022-09-12T16:46:38.909Z,98895.97
2022-09-12T16:49:06.196Z,98897.47
2022-09-12T16:51:37.559Z,98906.63
2022-09-12T16:54:04.474Z,98900.94
2022-09-12T16:56:30.949Z,98903.91
2022-09-12T16:58:57.487Z,98900.47
2022-09-12T17:01:26.168Z,98899.75
2022-09-12T17:03:57.755Z,98890.94
2022-09-12T17:06:25.474Z,98888.53
2022-09-12T17:08:54.174Z,98882.94
2022-09-12T17:11:22.494Z,98874.22
2022-09-12T17:14:11.017Z,98863.09
2022-09-12T17:16:45.933Z,98862.50
2022-09-12T17:19:18.196Z,98889.41
2022-09-12T17:21:47.470Z,98892.16
2022-09-12T17:24:13.885Z,98887.41
2022-09-12T17:26:40.376Z,98890.44
2022-09-12T17:29:06.785Z,98890.44
2022-09-12T17:31:33.470Z,98890.28
2022-09-12T17:34:01.147Z,98886.66
2022-09-12T17:36:28.422Z,98878.38
2022-09-12T17:38:55.438Z,98882.03
2022-09-12T17:41:24.467Z,98887.78
2022-09-12T17:43:57.448Z,98883.28
2022-09-12T17:46:33.405Z,98883.75
2022-09-12T17:49:00.937Z,98877.13
2022-09-12T17:51:30.622Z,98879.50
2022-09-12T17:54:10.191Z,98892.75
2022-09-12T17:56:37.612Z,98887.34
2022-09-12T17:59:05.906Z,98896.16
2022-09-12T18:01:51.450Z,98894.31
2022-09-12T18:04:19.853Z,98901.25
2022-09-12T18:06:48.684Z,98893.78
2022-09-12T18:09:17.941Z,98891.06
2022-09-12T18:11:45.286Z,98893.78
2022-09-12T18:14:14.165Z,98893.16
2022-09-12T18:16:42.005Z,98898.00
2022-09-12T18:19:08.777Z,98892.56
2022-09-12T18:21:35.837Z,98897.19
2022-09-12T18:24:03.042Z,98906.34
2022-09-12T18:26:30.370Z,98900.47
2022-09-12T18:28:57.403Z,98910.09
2022-09-12T18:31:26.936Z,98912.59
2022-09-12T18:33:53.370Z,98911.97
2022-09-12T18:36:20.380Z,98903.81
2022-09-12T18:38:47.925Z,98902.13
2022-09-12T18:41:20.315Z,98893.75
2022-09-12T18:43:48.114Z,98896.88
2022-09-12T18:46:17.480Z,98890.81
2022-09-12T18:48:45.096Z,98890.00
2022-09-12T18:51:17.908Z,98890.59
2022-09-12T18:53:53.017Z,98883.50
2022-09-12T18:56:20.624Z,98876.59
2022-09-12T18:58:52.211Z,98881.19
2022-09-12T19:01:22.693Z,98880.38
2022-09-12T19:03:49.782Z,98883.69
2022-09-12T19:06:24.379Z,98887.84
2022-09-12T19:08:52.753Z,98890.34
2022-09-12T19:11:20.583Z,98896.41
2022-09-12T19:13:50.364Z,98895.13
2022-09-12T19:16:19.323Z,98897.38
2022-09-12T19:18:49.419Z,98899.88
2022-09-12T19:21:19.522Z,98893.84
2022-09-12T19:23:46.223Z,98892.81
2022-09-12T19:26:15.882Z,98886.09
2022-09-12T19:28:42.652Z,98894.66
2022-09-12T19:31:11.634Z,98889.25
2022-09-12T19:33:38.895Z,98888.97
2022-09-12T19:36:27.290Z,98882.69
2022-09-12T19:38:57.737Z,98886.03
2022-09-12T19:41:24.232Z,98880.59
2022-09-12T19:43:50.641Z,98883.28
2022-09-12T19:46:19.488Z,98881.41
2022-09-12T19:48:46.807Z,98887.22
2022-09-12T19:51:15.391Z,98870.31
2022-09-12T19:53:42.621Z,98873.63
2022-09-12T19:56:11.804Z,98873.81
2022-09-12T19:58:40.758Z,98880.69
2022-09-12T20:01:20.471Z,98870.03
2022-09-12T20:03:47.428Z,98877.13
2022-09-12T20:06:16.464Z,98868.16
2022-09-12T20:08:43.925Z,98862.50
2022-09-12T20:11:13.063Z,98849.13
2022-09-12T20:13:40.246Z,98855.81
2022-09-12T20:16:19.029Z,98853.66
2022-09-12T20:18:49.341Z,98852.78
2022-09-12T20:21:18.763Z,98855.88
2022-09-12T20:23:46.671Z,98864.03
2022-09-12T20:26:13.721Z,98860.28
2022-09-12T20:28:41.578Z,98858.22
2022-09-12T20:31:12.547Z,98858.59
2022-09-12T20:33:39.802Z,98864.25
2022-09-12T20:36:10.321Z,98864.03
2022-09-12T20:38:37.174Z,98866.50
2022-09-12T20:41:05.670Z,98862.72
2022-09-12T20:43:32.108Z,98872.69
2022-09-12T20:45:59.740Z,98881.16
2022-09-12T20:48:26.901Z,98878.00
2022-09-12T20:50:53.512Z,98877.75
2022-09-12T20:53:20.131Z,98874.78
2022-09-12T20:55:51.431Z,98867.88
2022-09-12T20:58:19.206Z,98877.00
2022-09-12T21:00:46.471Z,98873.19
2022-09-12T21:03:13.829Z,98868.16
2022-09-12T21:05:44.525Z,98859.00
2022-09-12T21:08:11.583Z,98848.41
2022-09-12T21:10:40.797Z,98844.66
2022-09-12T21:13:09.135Z,98844.06
2022-09-12T21:15:36.485Z,98850.19
2022-09-12T21:18:02.908Z,98846.28
2022-09-12T21:20:30.116Z,98842.31
2022-09-12T21:22:56.461Z,98845.47
2022-09-12T21:25:23.050Z,98849.69
2022-09-12T21:27:49.449Z,98858.88
2022-09-12T21:30:16.011Z,98855.75
2022-09-12T21:32:42.416Z,98861.56
2022-09-12T21:35:09.119Z,98861.94
2022-09-12T21:37:35.663Z,98858.78
2022-09-12T21:40:02.305Z,98860.66
2022-09-12T21:42:28.904Z,98854.47
2022-09-12T21:44:55.376Z,98838.84
2022-09-12T21:47:21.893Z,98842.22
2022-09-12T21:49:48.305Z,98838.06
2022-09-12T21:52:14.824Z,98840.78
2022-09-12T21:54:41.188Z,98838.06
2022-09-12T21:57:07.913Z,98833.91
2022-09-12T21:59:34.275Z,98832.00
2022-09-12T22:02:00.803Z,98821.38
2022-09-12T22:04:27.271Z,98819.94
2022-09-12T22:06:53.809Z,98811.81
2022-09-12T22:09:20.202Z,98824.94
2022-09-12T22:11:46.889Z,98812.03
2022-09-12T22:14:13.339Z,98810.38
2022-09-12T22:16:40.363Z,98811.00
2022-09-12T22:19:06.837Z,98807.25
2022-09-12T22:21:33.382Z,98808.25
2022-09-12T22:24:18.291Z,98808.00
2022-09-12T22:26:46.257Z,98811.34
2022-09-12T22:29:13.477Z,98810.44
2022-09-12T22:31:40.150Z,98811.88
2022-09-12T22:34:07.214Z,98805.78
2022-09-12T22:36:38.199Z,98803.34
2022-09-12T22:39:06.032Z,98810.44
2022-09-12T22:41:32.459Z,98807.63
2022-09-12T22:43:59.219Z,98810.72
2022-09-12T22:46:26.026Z,98812.00
2022-09-12T22:48:52.669Z,98815.50
2022-09-12T22:51:19.108Z,98808.25
2022-09-12T22:53:45.993Z,98807.28
2022-09-12T22:56:12.448Z,98798.81
2022-09-12T22:58:38.928Z,98811.34
2022-09-12T23:01:06.372Z,98805.06
2022-09-12T23:03:33.602Z,98810.22
2022-09-12T23:06:00.089Z,98811.34
2022-09-12T23:08:29.428Z,98822.97
2022-09-12T23:11:02.668Z,98812.50
2022-09-12T23:13:29.169Z,98812.13
2022-09-12T23:15:59.999Z,98818.75
2022-09-12T23:18:26.785Z,98825.78
2022-09-12T23:21:01.641Z,98810.34
2022-09-12T23:23:29.129Z,98810.63
2022-09-12T23:26:30.329Z,98801.03
2022-09-12T23:28:59.177Z,98817.16
2022-09-12T23:31:30.257Z,98810.09
2022-09-12T23:33:59.050Z,98811.78
2022-09-12T23:36:26.824Z,98828.47
2022-09-12T23:38:55.272Z,98821.59
2022-09-12T23:41:23.998Z,98803.44
2022-09-12T23:43:50.431Z,98800.50
2022-09-12T23:46:18.132Z,98804.25
2022-09-12T23:48:44.691Z,98798.66
2022-09-12T23:51:11.569Z,98795.84
2022-09-12T23:53:38.382Z,98790.03
2022-09-12T23:56:05.416Z,98793.78
2022-09-12T23:58:32.280Z,98788.19
